createdAt,value
2018-10-02T00:00:07.965Z,9.63
2018-10-02T00:02:36.528Z,15.97
2018-10-02T00:05:05.736Z,11.23
2018-10-02T00:07:34.262Z,12.50
2018-10-02T00:10:02.822Z,12.53
2018-10-02T00:12:36.562Z,13.87
2018-10-02T00:15:05.466Z,13.37
2018-10-02T00:17:34.075Z,30.07
2018-10-02T00:20:02.725Z,14.00
2018-10-02T00:22:31.198Z,18.90
2018-10-02T00:24:59.742Z,8.10
2018-10-02T00:27:28.840Z,13.30
2018-10-02T00:29:57.378Z,12.23
2018-10-02T00:32:26.066Z,8.93
2018-10-02T00:34:54.503Z,15.77
2018-10-02T00:37:23.767Z,15.47
2018-10-02T00:39:52.369Z,8.33
2018-10-02T00:42:20.967Z,27.00
2018-10-02T00:44:49.598Z,17.30
2018-10-02T00:47:18.111Z,6.90
2018-10-02T00:49:46.626Z,11.27
2018-10-02T00:52:15.216Z,14.50
2018-10-02T00:54:43.710Z,12.30
2018-10-02T00:57:12.214Z,14.87
2018-10-02T00:59:40.751Z,10.93
2018-10-02T01:02:09.359Z,12.53
2018-10-02T01:04:37.921Z,7.03
2018-10-02T01:07:06.560Z,11.10
2018-10-02T01:09:35.167Z,11.87
2018-10-02T01:12:03.698Z,10.83
2018-10-02T01:14:32.174Z,15.13
2018-10-02T01:17:01.262Z,15.23
2018-10-02T01:19:30.454Z,10.23
2018-10-02T01:21:58.974Z,19.00
2018-10-02T01:24:27.538Z,11.60
2018-10-02T01:26:56.106Z,17.47
2018-10-02T01:29:24.666Z,13.23
2018-10-02T01:31:53.200Z,14.40
2018-10-02T01:34:22.007Z,11.50
2018-10-02T01:36:50.667Z,9.83
2018-10-02T01:39:19.225Z,16.73
2018-10-02T01:41:47.784Z,12.27
2018-10-02T01:44:17.926Z,11.93
2018-10-02T01:46:46.444Z,23.63
2018-10-02T01:49:15.700Z,6.50
2018-10-02T01:51:44.246Z,5.60
2018-10-02T01:54:12.812Z,20.47
2018-10-02T01:56:41.345Z,13.27
2018-10-02T01:59:10.966Z,12.80
2018-10-02T02:01:39.464Z,13.33
2018-10-02T02:04:07.977Z,18.73
2018-10-02T02:06:36.623Z,17.53
2018-10-02T02:09:06.596Z,10.93
2018-10-02T02:11:35.199Z,12.37
2018-10-02T02:14:03.698Z,18.13
2018-10-02T02:16:32.256Z,12.70
2018-10-02T02:19:00.879Z,14.93
2018-10-02T02:21:29.470Z,11.53
2018-10-02T02:23:57.950Z,15.13
2018-10-02T02:26:26.462Z,15.23
2018-10-02T02:28:54.938Z,21.27
2018-10-02T02:31:23.539Z,10.87
2018-10-02T02:33:52.662Z,15.10
2018-10-02T02:36:21.189Z,8.07
2018-10-02T02:38:49.703Z,9.43
2018-10-02T02:41:18.232Z,13.13
2018-10-02T02:43:46.764Z,11.53
2018-10-02T02:46:15.263Z,11.53
2018-10-02T02:48:49.135Z,14.67
2018-10-02T02:51:33.562Z,8.03
2018-10-02T02:54:02.099Z,11.73
2018-10-02T02:56:31.634Z,14.10
2018-10-02T02:59:00.953Z,8.73
2018-10-02T03:01:30.627Z,22.53
2018-10-02T03:03:59.539Z,12.40
2018-10-02T03:06:28.753Z,16.53
2018-10-02T03:08:57.250Z,19.03
2018-10-02T03:11:25.902Z,11.97
2018-10-02T03:13:54.385Z,9.30
2018-10-02T03:16:22.887Z,6.87
2018-10-02T03:18:51.361Z,27.93
2018-10-02T03:21:19.845Z,15.03
2018-10-02T03:23:48.522Z,17.90
2018-10-02T03:26:17.019Z,22.67
2018-10-02T03:28:45.541Z,18.83
2018-10-02T03:31:14.089Z,13.67
2018-10-02T03:33:42.574Z,12.17
2018-10-02T03:36:11.136Z,18.13
2018-10-02T03:38:39.670Z,11.07
2018-10-02T03:41:08.208Z,16.70
2018-10-02T03:43:36.734Z,10.73
2018-10-02T03:46:05.340Z,8.57
2018-10-02T03:48:34.318Z,12.03
2018-10-02T03:51:02.914Z,12.60
2018-10-02T03:53:31.424Z,17.10
2018-10-02T03:55:59.949Z,17.47
2018-10-02T03:58:28.471Z,15.33
2018-10-02T04:00:57.025Z,9.10
2018-10-02T04:03:25.605Z,11.93
2018-10-02T04:05:54.079Z,16.73
2018-10-02T04:08:22.650Z,16.93
2018-10-02T04:10:51.210Z,13.93
2018-10-02T04:13:19.886Z,20.43
2018-10-02T04:15:48.392Z,13.27
2018-10-02T04:18:16.973Z,13.30
2018-10-02T04:20:45.521Z,15.20
2018-10-02T04:23:13.990Z,13.80
2018-10-02T04:25:43.453Z,14.97
2018-10-02T04:28:12.031Z,13.90
2018-10-02T04:30:40.556Z,17.00
2018-10-02T04:33:09.074Z,13.10
2018-10-02T04:35:38.425Z,12.83
2018-10-02T04:38:07.634Z,12.73
2018-10-02T04:40:36.186Z,15.50
2018-10-02T04:43:05.459Z,15.37
2018-10-02T04:45:34.022Z,16.50
2018-10-02T04:48:03.283Z,15.37
2018-10-02T04:50:31.823Z,23.63
2018-10-02T04:53:00.368Z,17.83
2018-10-02T04:55:28.862Z,20.63
2018-10-02T04:57:57.390Z,16.00
2018-10-02T05:00:25.950Z,14.67
2018-10-02T05:02:54.435Z,20.93
2018-10-02T05:05:22.902Z,24.20
2018-10-02T05:07:58.110Z,22.70
2018-10-02T05:10:26.577Z,21.07
2018-10-02T05:12:55.125Z,17.33
2018-10-02T05:15:23.615Z,24.10
2018-10-02T05:17:52.145Z,23.20
2018-10-02T05:20:20.762Z,21.87
2018-10-02T05:22:49.310Z,24.07
2018-10-02T05:25:17.830Z,23.20
2018-10-02T05:27:46.388Z,30.93
2018-10-02T05:30:14.885Z,30.50
2018-10-02T05:32:43.454Z,23.57
2018-10-02T05:35:12.047Z,27.03
2018-10-02T05:37:40.449Z,28.60
2018-10-02T05:40:09.055Z,27.87
2018-10-02T05:42:37.665Z,30.57
2018-10-02T05:45:07.151Z,31.07
2018-10-02T05:47:35.721Z,39.50
2018-10-02T05:50:04.248Z,44.20
2018-10-02T05:52:32.758Z,42.60
2018-10-02T05:55:01.297Z,44.60
2018-10-02T05:57:30.235Z,41.63
2018-10-02T05:59:58.917Z,38.53
2018-10-02T06:02:29.966Z,40.60
2018-10-02T06:04:58.598Z,32.67
2018-10-02T06:07:27.358Z,31.37
2018-10-02T06:09:56.469Z,34.67
2018-10-02T06:12:25.078Z,34.83
2018-10-02T06:14:53.579Z,29.80
2018-10-02T06:17:22.113Z,26.37
2018-10-02T06:19:50.753Z,31.87
2018-10-02T06:22:19.388Z,28.60
2018-10-02T06:24:48.014Z,25.97
2018-10-02T06:27:16.555Z,36.87
2018-10-02T06:29:45.174Z,38.07
2018-10-02T06:32:13.730Z,33.50
2018-10-02T06:34:42.369Z,29.30
2018-10-02T06:37:10.945Z,35.97
2018-10-02T06:39:39.499Z,33.77
2018-10-02T06:42:08.095Z,42.23
2018-10-02T06:44:36.786Z,34.50
2018-10-02T06:47:05.350Z,33.67
2018-10-02T06:49:33.954Z,34.40
2018-10-02T06:52:02.617Z,37.53
2018-10-02T06:54:31.063Z,40.63
2018-10-02T06:56:59.587Z,36.47
2018-10-02T06:59:28.127Z,52.07
2018-10-02T07:01:56.697Z,33.00
2018-10-02T07:04:25.991Z,36.67
2018-10-02T07:06:54.719Z,32.93
2018-10-02T07:09:23.167Z,36.53
2018-10-02T07:11:51.733Z,39.50
2018-10-02T07:14:20.273Z,36.27
2018-10-02T07:16:48.810Z,37.80
2018-10-02T07:19:17.292Z,32.77
2018-10-02T07:21:45.871Z,41.37
2018-10-02T07:24:14.342Z,27.57
2018-10-02T07:26:42.916Z,34.07
2018-10-02T07:29:11.471Z,27.17
2018-10-02T07:31:40.167Z,30.57
2018-10-02T07:34:08.728Z,20.07
2018-10-02T07:36:39.086Z,31.37
2018-10-02T07:39:09.148Z,37.30
2018-10-02T07:41:38.753Z,28.33
2018-10-02T07:44:07.210Z,28.53
2018-10-02T07:46:35.707Z,30.23
2018-10-02T07:49:04.229Z,25.13
2018-10-02T07:51:32.726Z,27.60
2018-10-02T07:54:01.290Z,28.77
2018-10-02T07:56:29.871Z,27.30
2018-10-02T07:58:58.479Z,23.67
2018-10-02T08:01:27.030Z,24.90
2018-10-02T08:03:55.533Z,26.43
2018-10-02T08:06:24.044Z,25.83
2018-10-02T08:08:52.700Z,33.20
2018-10-02T08:11:22.061Z,27.53
2018-10-02T08:13:50.653Z,29.23
2018-10-02T08:16:19.202Z,24.97
2018-10-02T08:18:47.706Z,25.80
2018-10-02T08:21:16.725Z,31.43
2018-10-02T08:23:45.300Z,29.23
2018-10-02T08:26:14.387Z,32.90
2018-10-02T08:28:42.911Z,28.90
2018-10-02T08:31:11.479Z,29.00
2018-10-02T08:33:39.959Z,30.23
2018-10-02T08:36:08.810Z,31.47
2018-10-02T08:38:37.268Z,27.00
2018-10-02T08:41:05.796Z,28.67
2018-10-02T08:43:35.674Z,28.40
2018-10-02T08:46:04.147Z,26.63
2018-10-02T08:48:32.696Z,34.43
2018-10-02T08:51:01.766Z,26.83
2018-10-02T08:53:30.235Z,27.23
2018-10-02T08:55:58.722Z,30.17
2018-10-02T08:58:27.742Z,31.73
2018-10-02T09:00:56.420Z,25.93
2018-10-02T09:03:25.308Z,20.70
2018-10-02T09:05:53.846Z,33.60
2018-10-02T09:08:22.364Z,24.10
2018-10-02T09:10:50.928Z,34.07
2018-10-02T09:13:19.822Z,23.90
2018-10-02T09:15:48.467Z,22.53
2018-10-02T09:18:16.941Z,25.30
2018-10-02T09:20:45.604Z,33.93
2018-10-02T09:23:14.084Z,24.53
2018-10-02T09:25:42.662Z,24.27
2018-10-02T09:28:11.235Z,28.53
2018-10-02T09:30:44.881Z,29.47
2018-10-02T09:33:18.643Z,27.03
2018-10-02T09:35:52.323Z,28.07
2018-10-02T09:38:26.146Z,32.67
2018-10-02T09:40:59.758Z,25.53
2018-10-02T09:43:40.806Z,26.27
2018-10-02T09:46:09.332Z,25.50
2018-10-02T09:48:44.578Z,25.63
2018-10-02T09:51:13.094Z,25.57
2018-10-02T09:53:41.613Z,21.80
2018-10-02T09:56:10.184Z,34.57
2018-10-02T09:58:38.737Z,29.30
2018-10-02T10:01:11.719Z,22.30
2018-10-02T10:03:40.274Z,24.13
2018-10-02T10:06:08.813Z,24.07
2018-10-02T10:08:37.423Z,27.20
2018-10-02T10:11:05.995Z,21.63
2018-10-02T10:13:34.919Z,22.93
2018-10-02T10:16:03.740Z,27.57
2018-10-02T10:18:32.281Z,24.37
2018-10-02T10:21:00.791Z,24.87
2018-10-02T10:23:29.322Z,21.20
2018-10-02T10:25:57.835Z,20.00
2018-10-02T10:28:26.948Z,20.00
2018-10-02T10:30:55.494Z,23.83
2018-10-02T10:33:24.015Z,26.93
2018-10-02T10:35:52.513Z,28.60
2018-10-02T10:38:21.191Z,27.83
2018-10-02T10:40:49.821Z,21.80
2018-10-02T10:43:19.355Z,23.57
2018-10-02T10:45:48.167Z,22.23
2018-10-02T10:48:16.686Z,25.13
2018-10-02T10:50:45.202Z,25.03
2018-10-02T10:53:13.812Z,20.47
2018-10-02T10:55:42.322Z,21.80
2018-10-02T10:58:10.890Z,27.03
2018-10-02T11:00:39.429Z,22.10
2018-10-02T11:03:07.972Z,22.63
2018-10-02T11:05:36.639Z,23.60
2018-10-02T11:08:05.155Z,29.13
2018-10-02T11:10:33.731Z,23.40
2018-10-02T11:13:02.264Z,25.33
2018-10-02T11:15:32.121Z,30.40
2018-10-02T11:18:01.083Z,26.03
2018-10-02T11:20:32.272Z,19.27
2018-10-02T11:23:00.986Z,24.40
2018-10-02T11:25:29.621Z,23.00
2018-10-02T11:27:58.695Z,21.13
2018-10-02T11:30:27.237Z,22.30
2018-10-02T11:32:55.877Z,21.50
2018-10-02T11:35:24.488Z,19.93
2018-10-02T11:37:53.006Z,18.23
2018-10-02T11:40:21.542Z,16.20
2018-10-02T11:42:50.134Z,18.00
2018-10-02T11:45:18.702Z,18.20
2018-10-02T11:47:47.187Z,16.27
2018-10-02T11:50:15.785Z,16.63
2018-10-02T11:52:44.407Z,15.23
2018-10-02T11:55:12.908Z,19.87
2018-10-02T11:57:41.443Z,15.73
2018-10-02T12:00:10.605Z,15.20
2018-10-02T12:02:39.259Z,12.83
2018-10-02T12:05:07.819Z,16.67
2018-10-02T12:07:36.374Z,18.90
2018-10-02T12:10:04.991Z,15.97
2018-10-02T12:12:33.491Z,15.43
2018-10-02T12:15:02.035Z,13.23
2018-10-02T12:17:30.568Z,14.03
2018-10-02T12:19:59.293Z,15.93
2018-10-02T12:22:27.666Z,13.83
2018-10-02T12:24:56.166Z,17.60
2018-10-02T12:27:24.726Z,15.73
2018-10-02T12:29:53.263Z,14.30
2018-10-02T12:32:21.855Z,12.00
2018-10-02T12:34:50.392Z,17.83
2018-10-02T12:37:18.877Z,20.00
2018-10-02T12:39:47.424Z,17.10
2018-10-02T12:42:15.910Z,17.53
2018-10-02T12:44:45.491Z,17.10
2018-10-02T12:47:14.040Z,18.80
2018-10-02T12:49:42.559Z,17.80
2018-10-02T12:52:11.135Z,29.93
2018-10-02T12:54:39.722Z,17.90
2018-10-02T12:57:08.308Z,21.33
2018-10-02T12:59:36.806Z,23.53
2018-10-02T13:02:05.426Z,20.77
2018-10-02T13:04:33.994Z,20.43
2018-10-02T13:07:02.616Z,21.23
2018-10-02T13:09:31.149Z,20.80
2018-10-02T13:11:59.853Z,20.23
2018-10-02T13:14:29.166Z,23.40
2018-10-02T13:16:57.734Z,21.40
2018-10-02T13:19:26.374Z,24.60
2018-10-02T13:21:55.733Z,20.80
2018-10-02T13:24:24.308Z,23.17
2018-10-02T13:26:52.906Z,24.80
2018-10-02T13:29:22.689Z,20.20
2018-10-02T13:31:51.216Z,19.77
2018-10-02T13:34:19.843Z,18.00
2018-10-02T13:36:49.212Z,14.07
2018-10-02T13:39:17.739Z,18.20
2018-10-02T13:41:46.243Z,20.30
2018-10-02T13:44:14.819Z,18.77
2018-10-02T13:46:43.472Z,20.50
2018-10-02T13:49:12.025Z,21.73
2018-10-02T13:51:40.630Z,26.93
2018-10-02T13:54:09.174Z,16.60
2018-10-02T13:56:37.872Z,12.53
2018-10-02T13:59:06.578Z,18.40
2018-10-02T14:01:35.090Z,12.17
2018-10-02T14:04:03.640Z,14.50
2018-10-02T14:06:32.271Z,17.07
2018-10-02T14:09:00.853Z,16.80
2018-10-02T14:11:30.047Z,15.07
2018-10-02T14:13:58.586Z,22.23
2018-10-02T14:16:27.137Z,11.47
2018-10-02T14:18:55.714Z,10.00
2018-10-02T14:21:24.311Z,13.23
2018-10-02T14:23:52.881Z,12.93
2018-10-02T14:26:21.561Z,15.03
2018-10-02T14:28:50.426Z,11.27
2018-10-02T14:31:19.047Z,13.03
2018-10-02T14:33:47.556Z,15.23
2018-10-02T14:36:16.482Z,12.10
2018-10-02T14:38:45.004Z,6.87
2018-10-02T14:41:14.030Z,13.83
2018-10-02T14:43:42.551Z,13.03
2018-10-02T14:46:11.345Z,14.10
2018-10-02T14:48:40.323Z,5.47
2018-10-02T14:51:08.943Z,9.80
2018-10-02T14:53:37.637Z,14.67
2018-10-02T14:56:06.680Z,11.70
2018-10-02T14:58:35.267Z,15.17
2018-10-02T15:01:03.851Z,18.20
2018-10-02T15:03:32.403Z,9.33
2018-10-02T15:06:01.104Z,14.77
2018-10-02T15:08:29.683Z,11.10
2018-10-02T15:10:58.310Z,16.70
2018-10-02T15:13:27.606Z,15.63
2018-10-02T15:15:56.214Z,17.17
2018-10-02T15:18:24.702Z,19.90
2018-10-02T15:20:53.231Z,17.77
2018-10-02T15:23:21.759Z,13.10
2018-10-02T15:25:50.320Z,21.20
2018-10-02T15:28:19.520Z,24.83
2018-10-02T15:30:48.065Z,11.90
2018-10-02T15:33:16.645Z,24.63
2018-10-02T15:35:45.154Z,9.90
2018-10-02T15:38:13.721Z,14.63
2018-10-02T15:40:42.296Z,9.30
2018-10-02T15:43:10.819Z,10.13
2018-10-02T15:45:39.403Z,10.93
2018-10-02T15:48:08.102Z,18.80
2018-10-02T15:50:36.701Z,11.47
2018-10-02T15:53:05.254Z,15.00
2018-10-02T15:55:33.842Z,13.03
2018-10-02T15:58:02.539Z,8.30
2018-10-02T16:00:31.063Z,15.47
2018-10-02T16:02:59.638Z,23.13
2018-10-02T16:05:28.926Z,15.90
2018-10-02T16:07:57.631Z,16.50
2018-10-02T16:10:26.410Z,8.90
2018-10-02T16:12:54.986Z,17.17
2018-10-02T16:15:23.539Z,16.90
2018-10-02T16:17:52.476Z,11.07
2018-10-02T16:20:21.108Z,19.07
2018-10-02T16:22:49.799Z,15.90
2018-10-02T16:25:18.440Z,15.27
2018-10-02T16:27:47.122Z,13.57
2018-10-02T16:30:15.734Z,19.23
2018-10-02T16:32:44.465Z,23.50
2018-10-02T16:35:14.296Z,18.50
2018-10-02T16:37:43.740Z,17.50
2018-10-02T16:40:12.474Z,21.30
2018-10-02T16:42:41.132Z,10.90
2018-10-02T16:45:10.238Z,16.83
2018-10-02T16:47:39.131Z,19.23
2018-10-02T16:50:08.039Z,21.20
2018-10-02T16:52:36.571Z,13.07
2018-10-02T16:55:05.283Z,21.70
2018-10-02T16:57:35.331Z,17.40
2018-10-02T17:00:04.190Z,16.50
2018-10-02T17:02:32.984Z,23.60
2018-10-02T17:05:01.590Z,12.00
2018-10-02T17:07:30.325Z,23.90
2018-10-02T17:09:58.966Z,9.50
2018-10-02T17:12:27.522Z,17.03
2018-10-02T17:14:56.079Z,18.83
2018-10-02T17:17:24.832Z,17.53
2018-10-02T17:19:53.463Z,17.87
2018-10-02T17:22:22.021Z,19.70
2018-10-02T17:24:50.650Z,15.20
2018-10-02T17:27:19.258Z,15.90
2018-10-02T17:29:47.813Z,12.10
2018-10-02T17:32:16.442Z,11.50
2018-10-02T17:34:45.016Z,44.17
2018-10-02T17:37:13.935Z,27.07
2018-10-02T17:39:42.443Z,13.33
2018-10-02T17:42:11.163Z,17.13
2018-10-02T17:44:39.933Z,8.57
2018-10-02T17:47:09.915Z,17.80
2018-10-02T17:49:39.417Z,18.53
2018-10-02T17:52:08.766Z,19.33
2018-10-02T17:54:37.417Z,19.60
2018-10-02T17:57:06.051Z,20.00
2018-10-02T17:59:34.664Z,24.57
2018-10-02T18:02:03.203Z,13.27
2018-10-02T18:04:31.775Z,20.63
2018-10-02T18:07:00.548Z,25.70
2018-10-02T18:09:29.095Z,22.93
2018-10-02T18:11:57.775Z,16.13
2018-10-02T18:14:26.502Z,22.93
2018-10-02T18:16:55.199Z,14.57
2018-10-02T18:19:23.750Z,15.40
2018-10-02T18:21:52.287Z,18.80
2018-10-02T18:24:20.911Z,14.10
2018-10-02T18:26:49.625Z,23.80
2018-10-02T18:29:18.183Z,20.50
2018-10-02T18:31:46.730Z,19.90
2018-10-02T18:34:15.388Z,17.87
2018-10-02T18:36:44.001Z,19.40
2018-10-02T18:39:12.700Z,17.57
2018-10-02T18:41:41.311Z,19.50
2018-10-02T18:44:10.987Z,16.00
2018-10-02T18:46:39.597Z,16.63
2018-10-02T18:49:08.202Z,19.77
2018-10-02T18:51:36.839Z,15.70
2018-10-02T18:54:05.358Z,19.17
2018-10-02T18:56:33.998Z,21.10
2018-10-02T18:59:03.049Z,23.67
2018-10-02T19:01:31.612Z,17.70
2018-10-02T19:04:00.111Z,27.53
2018-10-02T19:06:28.743Z,17.13
2018-10-02T19:09:02.661Z,22.73
2018-10-02T19:11:36.552Z,16.10
2018-10-02T19:14:05.086Z,26.87
2018-10-02T19:16:34.786Z,28.27
2018-10-02T19:19:03.408Z,17.47
2018-10-02T19:21:32.036Z,28.77
2018-10-02T19:24:00.858Z,16.93
2018-10-02T19:26:30.693Z,35.90
2018-10-02T19:28:59.295Z,34.67
2018-10-02T19:31:33.002Z,15.57
2018-10-02T19:34:02.196Z,20.53
2018-10-02T19:36:30.802Z,25.03
2018-10-02T19:39:02.385Z,19.20
2018-10-02T19:41:31.322Z,17.37
2018-10-02T19:43:59.975Z,25.57
2018-10-02T19:46:34.487Z,25.03
2018-10-02T19:49:03.202Z,31.83
2018-10-02T19:51:36.933Z,21.13
2018-10-02T19:54:05.505Z,23.10
2018-10-02T19:56:34.200Z,24.17
2018-10-02T19:59:02.914Z,23.37
2018-10-02T20:01:31.610Z,28.30
2018-10-02T20:04:00.184Z,24.40
2018-10-02T20:06:28.686Z,19.13
2018-10-02T20:08:57.274Z,24.27
2018-10-02T20:11:25.795Z,24.80
2018-10-02T20:13:54.320Z,19.40
2018-10-02T20:16:22.894Z,21.70
2018-10-02T20:18:51.450Z,26.93
2018-10-02T20:21:20.011Z,33.70
2018-10-02T20:23:48.589Z,15.67
2018-10-02T20:26:17.098Z,25.77
2018-10-02T20:28:45.638Z,19.27
2018-10-02T20:31:14.219Z,22.20
2018-10-02T20:33:42.926Z,25.73
2018-10-02T20:36:11.430Z,18.47
2018-10-02T20:38:39.952Z,28.17
2018-10-02T20:41:08.519Z,18.63
2018-10-02T20:43:37.104Z,25.27
2018-10-02T20:46:05.727Z,24.77
2018-10-02T20:48:34.228Z,17.53
2018-10-02T20:51:02.844Z,28.40
2018-10-02T20:53:31.570Z,25.20
2018-10-02T20:56:00.078Z,23.67
2018-10-02T20:58:28.787Z,26.20
2018-10-02T21:00:57.295Z,37.13
2018-10-02T21:03:25.951Z,25.73
2018-10-02T21:05:54.559Z,43.17
2018-10-02T21:08:23.114Z,27.73
2018-10-02T21:10:51.751Z,31.80
2018-10-02T21:13:20.306Z,30.60
2018-10-02T21:15:48.858Z,28.20
2018-10-02T21:18:17.634Z,22.40
2018-10-02T21:20:46.216Z,39.47
2018-10-02T21:23:14.759Z,20.50
2018-10-02T21:25:43.320Z,22.73
2018-10-02T21:28:12.530Z,25.87
2018-10-02T21:30:41.617Z,23.33
2018-10-02T21:33:12.448Z,33.73
2018-10-02T21:35:41.249Z,20.63
2018-10-02T21:38:09.795Z,21.90
2018-10-02T21:40:38.302Z,24.27
2018-10-02T21:43:07.058Z,27.30
2018-10-02T21:45:35.604Z,25.07
2018-10-02T21:48:04.399Z,30.80
2018-10-02T21:50:33.009Z,28.10
2018-10-02T21:53:01.753Z,32.83
2018-10-02T21:55:30.558Z,25.73
2018-10-02T21:57:59.148Z,23.50
2018-10-02T22:00:30.074Z,22.23
2018-10-02T22:02:58.698Z,29.67
2018-10-02T22:05:27.190Z,34.43
2018-10-02T22:07:55.862Z,22.40
2018-10-02T22:10:24.378Z,22.13
2018-10-02T22:12:53.259Z,28.40
2018-10-02T22:15:21.755Z,31.63
2018-10-02T22:17:50.276Z,31.13
2018-10-02T22:20:18.782Z,24.20
2018-10-02T22:22:47.286Z,24.60
2018-10-02T22:25:15.814Z,32.63
2018-10-02T22:27:44.355Z,24.50
2018-10-02T22:30:13.823Z,17.50
2018-10-02T22:32:42.612Z,19.70
2018-10-02T22:35:11.115Z,36.17
2018-10-02T22:37:39.655Z,23.47
2018-10-02T22:40:08.344Z,20.30
2018-10-02T22:42:36.971Z,25.17
2018-10-02T22:45:05.506Z,18.77
2018-10-02T22:47:34.843Z,28.77
2018-10-02T22:50:03.331Z,23.67
2018-10-02T22:52:31.869Z,20.10
2018-10-02T22:55:00.469Z,28.57
2018-10-02T22:57:28.942Z,22.13
2018-10-02T22:59:57.431Z,18.20
2018-10-02T23:02:25.961Z,24.13
2018-10-02T23:04:54.487Z,27.00
2018-10-02T23:07:23.579Z,29.00
2018-10-02T23:09:52.168Z,16.30
2018-10-02T23:12:20.676Z,24.00
2018-10-02T23:14:49.266Z,20.00
2018-10-02T23:17:17.761Z,22.90
2018-10-02T23:19:46.258Z,17.63
2018-10-02T23:22:14.799Z,29.53
2018-10-02T23:24:43.361Z,23.37
2018-10-02T23:27:11.823Z,22.23
2018-10-02T23:29:40.323Z,23.30
2018-10-02T23:32:08.854Z,22.77
2018-10-02T23:34:37.373Z,23.10
2018-10-02T23:37:05.926Z,26.73
2018-10-02T23:39:34.471Z,27.20
2018-10-02T23:42:03.110Z,24.47
2018-10-02T23:44:31.640Z,25.47
2018-10-02T23:47:00.186Z,17.93
2018-10-02T23:49:28.703Z,34.37
2018-10-02T23:51:57.231Z,36.93
2018-10-02T23:54:25.967Z,21.67
2018-10-02T23:56:54.522Z,30.57
2018-10-02T23:59:23.132Z,26.60
